Time;durP1;ratioP1;P1;durP2;ratioP2;P2;SDS_P1;SDS_P2;PMS_P1;PMS_P2;Temp;Humidity;BMP_temperature;BMP_pressure;BME280_temperature;BME280_humidity;BME280_pressure;Samples;Min_cycle;Max_cycle;Signal;HPM_P1;HPM_P2
2021/11/27 00:01:29;;;;;;;;;;;;;;;;;;5023874;28;20016;-67
2021/11/27 00:03:58;;;;;;;;;;;;;;;;;;5026149;28;19986;-67
2021/11/27 00:06:28;;;;;;;;;;;;;;;;;;5027536;28;19928;-67
2021/11/27 00:08:58;;;;;;;;;;;;;;;;;;5017853;28;20549;-67
2021/11/27 00:11:28;;;;;;;;;;;;;;;;;;5021365;28;19960;-67
2021/11/27 00:14:02;;;;;;;;;;;;;;;;;;5026644;28;19929;-67
2021/11/27 00:16:39;;;;;;;;;;;;;;;;;;5009377;28;20359;-67
2021/11/27 00:19:12;;;;;;;;;;;;;;;;;;5026703;28;19935;-68
2021/11/27 00:21:40;;;;;;;;;;;;;;;;;;5020843;28;19925;-67
2021/11/27 00:24:11;;;;;;;;;;;;;;;;;;5013546;28;19932;-67
2021/11/27 00:26:42;;;;;;;;;;;;;;;;;;5027639;28;19936;-68
2021/11/27 00:29:14;;;;;;;;;;;;;;;;;;5027459;28;19933;-67
2021/11/27 00:31:42;;;;;;;;;;;;;;;;;;5008690;28;19992;-67
2021/11/27 00:34:13;;;;;;;;;;;;;;;;;;5025808;28;19954;-67
2021/11/27 00:36:44;;;;;;;;;;;;;;;;;;5022700;28;19933;-66
2021/11/27 00:39:14;;;;;;;;;;;;;;;;;;5016497;28;19925;-66
2021/11/27 00:41:43;;;;;;;;;;;;;;;;;;5027579;28;19925;-67
2021/11/27 00:44:13;;;;;;;;;;;;;;;;;;5028199;28;20402;-66
2021/11/27 00:46:43;;;;;;;;;;;;;;;;;;5025421;28;19932;-67
2021/11/27 00:49:13;;;;;;;;;;;;;;;;;;5024685;28;19939;-66
2021/11/27 00:51:42;;;;;;;;;;;;;;;;;;5006976;28;19982;-66
2021/11/27 00:54:13;;;;;;;;;;;;;;;;;;5027222;28;19970;-67
2021/11/27 00:56:47;;;;;;;;;;;;;;;;;;5025265;28;20462;-66
2021/11/27 00:59:17;;;;;;;;;;;;;;;;;;5022630;28;20374;-66
2021/11/27 01:01:47;;;;;;;;;;;;;;;;;;5022072;28;19926;-67
2021/11/27 01:04:15;;;;;;;;;;;;;;;;;;5020594;28;19925;-66
2021/11/27 01:06:47;;;;;;;;;;;;;;;;;;5026922;28;19925;-67
2021/11/27 01:09:20;;;;;;;;;;;;;;;;;;5022154;28;19924;-66
2021/11/27 01:11:47;;;;;;;;;;;;;;;;;;5026475;28;19925;-66
2021/11/27 01:14:19;;;;;;;;;;;;;;;;;;5023141;28;19925;-67
2021/11/27 01:16:51;;;;;;;;;;;;;;;;;;5026862;28;20330;-68
2021/11/27 01:19:25;;;;;;;;;;;;;;;;;;5021285;28;19925;-67
2021/11/27 01:21:55;;;;;;;;;;;;;;;;;;5023614;28;19959;-67
2021/11/27 01:24:25;;;;;;;;;;;;;;;;;;5026463;28;19925;-67
2021/11/27 01:27:00;;;;;;;;;;;;;;;;;;5010572;28;20031;-67
2021/11/27 01:29:37;;;;;;;;;;;;;;;;;;5020320;28;19925;-67
2021/11/27 01:32:06;;;;;;;;;;;;;;;;;;5026774;28;19929;-67
2021/11/27 01:34:35;;;;;;;;;;;;;;;;;;5023383;28;20279;-68
2021/11/27 01:37:06;;;;;;;;;;;;;;;;;;5026805;28;19925;-67
2021/11/27 01:39:36;;;;;;;;;;;;;;;;;;5009200;28;19925;-67
2021/11/27 01:42:07;;;;;;;;;;;;;;;;;;5026836;28;19925;-67
2021/11/27 01:44:38;;;;;;;;;;;;;;;;;;5020747;28;19925;-67
2021/11/27 01:47:09;;;;;;;;;;;;;;;;;;5017911;28;19983;-67
2021/11/27 01:49:36;;;;;;;;;;;;;;;;;;5022570;28;19925;-67
2021/11/27 01:52:05;;;;;;;;;;;;;;;;;;5026516;28;19929;-67
2021/11/27 01:54:35;;;;;;;;;;;;;;;;;;5024873;28;19926;-67
2021/11/27 01:57:03;;;;;;;;;;;;;;;;;;5025816;28;19933;-67
2021/11/27 01:59:36;;;;;;;;;;;;;;;;;;5010321;28;19937;-67
2021/11/27 02:02:10;;;;;;;;;;;;;;;;;;5020223;28;19956;-67
2021/11/27 02:04:43;;;;;;;;;;;;;;;;;;5037866;28;19947;-67
2021/11/27 02:07:14;;;;;;;;;;;;;;;;;;5029178;28;19932;-67
2021/11/27 02:09:43;;;;;;;;;;;;;;;;;;5023783;28;20593;-67
2021/11/27 02:12:11;;;;;;;;;;;;;;;;;;5008530;28;19925;-68
2021/11/27 02:14:41;;;;;;;;;;;;;;;;;;5026134;28;19925;-68
2021/11/27 02:17:13;;;;;;;;;;;;;;;;;;5025131;28;19925;-67
2021/11/27 02:19:41;;;;;;;;;;;;;;;;;;5022446;28;20247;-67
2021/11/27 02:22:19;;;;;;;;;;;;;;;;;;5022620;28;19929;-68
2021/11/27 02:24:47;;;;;;;;;;;;;;;;;;5031741;28;20313;-68
2021/11/27 02:27:17;;;;;;;;;;;;;;;;;;5022026;28;19936;-67
2021/11/27 02:29:47;;;;;;;;;;;;;;;;;;5023495;28;19933;-67
2021/11/27 02:32:22;;;;;;;;;;;;;;;;;;5024882;28;19925;-68
2021/11/27 02:34:52;;;;;;;;;;;;;;;;;;5032053;28;19925;-68
2021/11/27 02:37:21;;;;;;;;;;;;;;;;;;5006591;28;19925;-71
2021/11/27 02:39:49;;;;;;;;;;;;;;;;;;5026626;28;19925;-68
2021/11/27 02:42:18;;;;;;;;;;;;;;;;;;5026486;28;19936;-67
2021/11/27 02:44:49;;;;;;;;;;;;;;;;;;5025379;28;19925;-68
2021/11/27 02:47:18;;;;;;;;;;;;;;;;;;5021587;28;20339;-67
2021/11/27 02:49:48;;;;;;;;;;;;;;;;;;5015688;28;19932;-67
2021/11/27 02:52:20;;;;;;;;;;;;;;;;;;5023670;28;20358;-68
2021/11/27 02:54:55;;;;;;;;;;;;;;;;;;5026516;28;20347;-67
2021/11/27 02:57:38;;;;;;;;;;;;;;;;;;5019195;28;19956;-67
2021/11/27 03:00:08;;;;;;;;;;;;;;;;;;5025480;28;19929;-68
2021/11/27 03:02:39;;;;;;;;;;;;;;;;;;5026361;28;19966;-67
2021/11/27 03:05:09;;;;;;;;;;;;;;;;;;5025581;28;19925;-67
2021/11/27 03:07:36;;;;;;;;;;;;;;;;;;5023145;28;19929;-67
2021/11/27 03:10:04;;;;;;;;;;;;;;;;;;5020165;28;19925;-68
2021/11/27 03:12:37;;;;;;;;;;;;;;;;;;5023186;28;19975;-67
2021/11/27 03:15:08;;;;;;;;;;;;;;;;;;5023461;28;19940;-68
2021/11/27 03:17:38;;;;;;;;;;;;;;;;;;5009327;28;19929;-67
2021/11/27 03:20:09;;;;;;;;;;;;;;;;;;5012416;28;19952;-68
2021/11/27 03:22:41;;;;;;;;;;;;;;;;;;5023661;28;19929;-67
2021/11/27 03:25:13;;;;;;;;;;;;;;;;;;5025527;28;20430;-67
2021/11/27 03:27:44;;;;;;;;;;;;;;;;;;5029029;28;19929;-68
2021/11/27 03:30:13;;;;;;;;;;;;;;;;;;5021879;28;20314;-67
2021/11/27 03:32:43;;;;;;;;;;;;;;;;;;5029207;28;19929;-67
2021/11/27 03:35:14;;;;;;;;;;;;;;;;;;5019773;28;19925;-67
2021/11/27 03:37:44;;;;;;;;;;;;;;;;;;5011567;28;19956;-67
2021/11/27 03:40:13;;;;;;;;;;;;;;;;;;5024223;28;19948;-67
2021/11/27 03:42:53;;;;;;;;;;;;;;;;;;5028793;28;19936;-67
2021/11/27 03:45:21;;;;;;;;;;;;;;;;;;5023538;28;20380;-66
2021/11/27 03:47:49;;;;;;;;;;;;;;;;;;5028205;28;19925;-67
2021/11/27 03:50:20;;;;;;;;;;;;;;;;;;5026289;28;19974;-67
2021/11/27 03:52:48;;;;;;;;;;;;;;;;;;5028270;28;19936;-67
2021/11/27 03:55:19;;;;;;;;;;;;;;;;;;5025752;28;20000;-67
2021/11/27 03:57:47;;;;;;;;;;;;;;;;;;5024896;28;19941;-67
2021/11/27 04:00:17;;;;;;;;;;;;;;;;;;5026751;28;19929;-67
2021/11/27 04:02:47;;;;;;;;;;;;;;;;;;5027983;28;19932;-67
2021/11/27 04:05:17;;;;;;;;;;;;;;;;;;5022794;28;20378;-67
2021/11/27 04:07:48;;;;;;;;;;;;;;;;;;5028359;28;19948;-67
2021/11/27 04:10:23;;;;;;;;;;;;;;;;;;5025219;28;20497;-67
2021/11/27 04:12:53;;;;;;;;;;;;;;;;;;5021728;28;20362;-67
2021/11/27 04:15:22;;;;;;;;;;;;;;;;;;5029937;28;19932;-67
2021/11/27 04:17:51;;;;;;;;;;;;;;;;;;5034666;28;19936;-67
2021/11/27 04:20:25;;;;;;;;;;;;;;;;;;5029636;28;19945;-67
2021/11/27 04:22:56;;;;;;;;;;;;;;;;;;5027970;28;20355;-67
2021/11/27 04:25:23;;;;;;;;;;;;;;;;;;5032100;28;19925;-66
2021/11/27 04:27:52;;;;;;;;;;;;;;;;;;5028581;28;20546;-66
2021/11/27 04:30:24;;;;;;;;;;;;;;;;;;5028573;28;20355;-67
2021/11/27 04:32:54;;;;;;;;;;;;;;;;;;5026369;28;19936;-67
2021/11/27 04:35:24;;;;;;;;;;;;;;;;;;5026912;28;19925;-67
2021/11/27 04:37:56;;;;;;;;;;;;;;;;;;5026533;28;19925;-67
2021/11/27 04:40:28;;;;;;;;;;;;;;;;;;5013826;28;20783;-66
2021/11/27 04:42:58;;;;;;;;;;;;;;;;;;5027498;28;19925;-67
2021/11/27 04:45:26;;;;;;;;;;;;;;;;;;5024024;28;19933;-67
2021/11/27 04:47:59;;;;;;;;;;;;;;;;;;5011627;28;19976;-67
2021/11/27 04:50:27;;;;;;;;;;;;;;;;;;5029933;28;19971;-67
2021/11/27 04:52:59;;;;;;;;;;;;;;;;;;5028610;28;19926;-67
2021/11/27 04:55:35;;;;;;;;;;;;;;;;;;5016355;28;19956;-67
2021/11/27 04:58:03;;;;;;;;;;;;;;;;;;5006253;28;19925;-67
2021/11/27 05:00:34;;;;;;;;;;;;;;;;;;5007757;28;19982;-67
2021/11/27 05:03:03;;;;;;;;;;;;;;;;;;5006320;28;20244;-67
2021/11/27 05:05:34;;;;;;;;;;;;;;;;;;5004125;28;20247;-67
2021/11/27 05:08:05;;;;;;;;;;;;;;;;;;5006685;28;19944;-67
2021/11/27 05:10:37;;;;;;;;;;;;;;;;;;5006554;28;19925;-67
2021/11/27 05:13:05;;;;;;;;;;;;;;;;;;5007432;28;20272;-67
2021/11/27 05:15:35;;;;;;;;;;;;;;;;;;5005656;28;19925;-67
2021/11/27 05:18:05;;;;;;;;;;;;;;;;;;5008300;28;20523;-67
2021/11/27 05:20:35;;;;;;;;;;;;;;;;;;5007384;28;19926;-66
2021/11/27 05:23:06;;;;;;;;;;;;;;;;;;5007172;28;19959;-66
2021/11/27 05:25:35;;;;;;;;;;;;;;;;;;5003988;28;19933;-66
2021/11/27 05:28:06;;;;;;;;;;;;;;;;;;5006843;28;20007;-67
2021/11/27 05:30:34;;;;;;;;;;;;;;;;;;5000683;28;19926;-66
2021/11/27 05:33:10;;;;;;;;;;;;;;;;;;5007623;28;19983;-67
2021/11/27 05:35:54;;;;;;;;;;;;;;;;;;5004977;28;20002;-67
2021/11/27 05:38:22;;;;;;;;;;;;;;;;;;5007782;28;19933;-67
2021/11/27 05:40:54;;;;;;;;;;;;;;;;;;5003763;28;20015;-67
2021/11/27 05:43:26;;;;;;;;;;;;;;;;;;5004891;28;19936;-67
2021/11/27 05:45:56;;;;;;;;;;;;;;;;;;5000511;28;19936;-67
2021/11/27 05:48:27;;;;;;;;;;;;;;;;;;5007133;28;20334;-66
2021/11/27 05:50:56;;;;;;;;;;;;;;;;;;5003477;28;20325;-67
2021/11/27 05:53:27;;;;;;;;;;;;;;;;;;5004822;28;19958;-66
2021/11/27 05:56:01;;;;;;;;;;;;;;;;;;5006095;28;20466;-67
2021/11/27 05:58:32;;;;;;;;;;;;;;;;;;5014830;28;19928;-68
2021/11/27 06:01:10;;;;;;;;;;;;;;;;;;5024237;28;19925;-68
2021/11/27 06:03:41;;;;;;;;;;;;;;;;;;5026005;28;19933;-67
2021/11/27 06:06:12;;;;;;;;;;;;;;;;;;5026834;28;19933;-67
2021/11/27 06:08:43;;;;;;;;;;;;;;;;;;5029272;28;19933;-67
2021/11/27 06:11:12;;;;;;;;;;;;;;;;;;5021130;28;19929;-67
2021/11/27 06:13:43;;;;;;;;;;;;;;;;;;5025867;28;19925;-67
2021/11/27 06:16:15;;;;;;;;;;;;;;;;;;5009897;28;19925;-67
2021/11/27 06:18:46;;;;;;;;;;;;;;;;;;5009045;28;19925;-67
2021/11/27 06:21:20;;;;;;;;;;;;;;;;;;5019724;28;20256;-66
2021/11/27 06:23:49;;;;;;;;;;;;;;;;;;5025343;28;20259;-66
2021/11/27 06:26:18;;;;;;;;;;;;;;;;;;5026617;28;19932;-66
2021/11/27 06:28:45;;;;;;;;;;;;;;;;;;5023434;28;19932;-67
2021/11/27 06:31:17;;;;;;;;;;;;;;;;;;5023775;28;19929;-67
2021/11/27 06:33:46;;;;;;;;;;;;;;;;;;5023838;28;19925;-67
2021/11/27 06:36:17;;;;;;;;;;;;;;;;;;5010482;28;20342;-67
2021/11/27 06:38:47;;;;;;;;;;;;;;;;;;5023079;28;19925;-67
2021/11/27 06:41:17;;;;;;;;;;;;;;;;;;5023636;28;19987;-67
2021/11/27 06:43:48;;;;;;;;;;;;;;;;;;5026013;28;19933;-67
2021/11/27 06:46:44;;;;;;;;;;;;;;;;;;5024224;28;19925;-67
2021/11/27 06:49:14;;;;;;;;;;;;;;;;;;5003715;28;20369;-66
2021/11/27 06:51:45;;;;;;;;;;;;;;;;;;5026339;28;20433;-67
2021/11/27 06:54:13;;;;;;;;;;;;;;;;;;5029411;28;19936;-67
2021/11/27 06:56:42;;;;;;;;;;;;;;;;;;5030895;28;19929;-67
2021/11/27 06:59:12;;;;;;;;;;;;;;;;;;5024584;28;19965;-67
2021/11/27 07:01:43;;;;;;;;;;;;;;;;;;5028728;28;20165;-67
2021/11/27 07:04:16;;;;;;;;;;;;;;;;;;5025667;28;19931;-67
2021/11/27 07:06:48;;;;;;;;;;;;;;;;;;5039479;28;20016;-65
2021/11/27 07:09:20;;;;;;;;;;;;;;;;;;5023728;28;19926;-65
2021/11/27 07:11:50;;;;;;;;;;;;;;;;;;5037386;28;19925;-67
2021/11/27 07:14:19;;;;;;;;;;;;;;;;;;5030825;28;19925;-67
2021/11/27 07:16:48;;;;;;;;;;;;;;;;;;5020986;28;20008;-67
2021/11/27 07:19:19;;;;;;;;;;;;;;;;;;5029073;28;19994;-66
2021/11/27 07:21:51;;;;;;;;;;;;;;;;;;5024953;28;19934;-67
2021/11/27 07:24:20;;;;;;;;;;;;;;;;;;5029017;28;19932;-67
2021/11/27 07:26:52;;;;;;;;;;;;;;;;;;5027016;28;20224;-68
2021/11/27 07:29:23;;;;;;;;;;;;;;;;;;5012997;28;19933;-68
2021/11/27 07:31:52;;;;;;;;;;;;;;;;;;5031371;28;20345;-65
2021/11/27 07:34:21;;;;;;;;;;;;;;;;;;5035111;28;20063;-65
2021/11/27 07:36:50;;;;;;;;;;;;;;;;;;5029595;28;20462;-68
2021/11/27 07:39:21;;;;;;;;;;;;;;;;;;5014190;28;20367;-68
2021/11/27 07:41:49;;;;;;;;;;;;;;;;;;5026042;28;19931;-65
2021/11/27 07:44:20;;;;;;;;;;;;;;;;;;5029983;28;19925;-65
2021/11/27 07:46:56;;;;;;;;;;;;;;;;;;5030627;28;20019;-65
2021/11/27 07:49:26;;;;;;;;;;;;;;;;;;5028149;28;19925;-65
2021/11/27 07:51:54;;;;;;;;;;;;;;;;;;5029426;28;19925;-66
2021/11/27 07:54:25;;;;;;;;;;;;;;;;;;5028671;28;19999;-66
2021/11/27 07:57:08;;;;;;;;;;;;;;;;;;5027967;28;20093;-64
2021/11/27 07:59:47;;;;;;;;;;;;;;;;;;4993176;28;20362;-64
2021/11/27 08:02:16;;;;;;;;;;;;;;;;;;4990429;28;19937;-65
2021/11/27 08:04:46;;;;;;;;;;;;;;;;;;4991459;28;19926;-66
2021/11/27 08:07:16;;;;;;;;;;;;;;;;;;5005927;28;19926;-68
2021/11/27 08:09:47;;;;;;;;;;;;;;;;;;4996478;28;20060;-68
2021/11/27 08:12:18;;;;;;;;;;;;;;;;;;4989908;28;20374;-65
2021/11/27 08:14:49;;;;;;;;;;;;;;;;;;4988249;28;19926;-64
2021/11/27 08:17:18;;;;;;;;;;;;;;;;;;4968738;28;19946;-66
2021/11/27 08:19:45;;;;;;;;;;;;;;;;;;4990217;28;19992;-66
2021/11/27 08:22:14;;;;;;;;;;;;;;;;;;4986498;28;19926;-65
2021/11/27 08:24:43;;;;;;;;;;;;;;;;;;4987192;28;21336;-65
2021/11/27 08:27:17;;;;;;;;;;;;;;;;;;4982739;28;19926;-66
2021/11/27 08:29:44;;;;;;;;;;;;;;;;;;4985415;28;20298;-65
2021/11/27 08:32:13;;;;;;;;;;;;;;;;;;4986544;28;19933;-65
2021/11/27 08:34:45;;;;;;;;;;;;;;;;;;4983494;28;19937;-65
2021/11/27 08:37:16;;;;;;;;;;;;;;;;;;4985149;28;20374;-65
2021/11/27 08:39:47;;;;;;;;;;;;;;;;;;4986219;28;19940;-65
2021/11/27 08:42:21;;;;;;;;;;;;;;;;;;4987323;28;20421;-65
2021/11/27 08:44:52;;;;;;;;;;;;;;;;;;4986335;28;19996;-65
2021/11/27 08:47:19;;;;;;;;;;;;;;;;;;4983615;28;19932;-69
2021/11/27 08:49:48;;;;;;;;;;;;;;;;;;4983955;28;19929;-67
2021/11/27 08:52:19;;;;;;;;;;;;;;;;;;4985718;28;19949;-65
2021/11/27 08:54:48;;;;;;;;;;;;;;;;;;4987742;28;19930;-66
2021/11/27 08:57:23;;;;;;;;;;;;;;;;;;4987384;28;19934;-66
2021/11/27 08:59:53;;;;;;;;;;;;;;;;;;5025138;28;19933;-66
2021/11/27 09:02:21;;;;;;;;;;;;;;;;;;5024941;28;19936;-64
2021/11/27 09:04:48;;;;;;;;;;;;;;;;;;5016983;28;19926;-64
2021/11/27 09:07:17;;;;;;;;;;;;;;;;;;5019214;28;19935;-65
2021/11/27 09:09:48;;;;;;;;;;;;;;;;;;5024622;28;20435;-65
2021/11/27 09:12:21;;;;;;;;;;;;;;;;;;5023188;28;19933;-64
2021/11/27 09:15:16;;;;;;;;;;;;;;;;;;5024743;28;19929;-67
2021/11/27 09:17:45;;;;;;;;;;;;;;;;;;5023381;28;19925;-68
2021/11/27 09:20:14;;;;;;;;;;;;;;;;;;5026905;28;19932;-67
2021/11/27 09:22:45;;;;;;;;;;;;;;;;;;5022641;28;19932;-67
2021/11/27 09:25:14;;;;;;;;;;;;;;;;;;5024747;28;20395;-65
2021/11/27 09:27:46;;;;;;;;;;;;;;;;;;5025867;28;19936;-63
2021/11/27 09:30:18;;;;;;;;;;;;;;;;;;5038794;28;19925;-68
2021/11/27 09:32:47;;;;;;;;;;;;;;;;;;5022452;28;20243;-69
2021/11/27 09:35:30;;;;;;;;;;;;;;;;;;5023283;28;20003;-70
2021/11/27 09:38:04;;;;;;;;;;;;;;;;;;5025956;28;19936;-69
2021/11/27 09:40:33;;;;;;;;;;;;;;;;;;5026039;28;19925;-67
2021/11/27 09:43:03;;;;;;;;;;;;;;;;;;5025586;28;19978;-67
2021/11/27 09:45:35;;;;;;;;;;;;;;;;;;5004845;28;19933;-68
2021/11/27 09:48:03;;;;;;;;;;;;;;;;;;5024008;28;19933;-69
2021/11/27 09:50:33;;;;;;;;;;;;;;;;;;5026548;28;20105;-69
2021/11/27 09:53:06;;;;;;;;;;;;;;;;;;5022288;28;20343;-69
2021/11/27 09:55:34;;;;;;;;;;;;;;;;;;5024493;28;20125;-65
2021/11/27 09:58:05;;;;;;;;;;;;;;;;;;5020925;28;19932;-67
2021/11/27 10:00:34;;;;;;;;;;;;;;;;;;5025139;28;20016;-62
2021/11/27 10:03:08;;;;;;;;;;;;;;;;;;5022661;28;19925;-64
2021/11/27 10:05:38;;;;;;;;;;;;;;;;;;5022222;28;19926;-64
2021/11/27 10:08:21;;;;;;;;;;;;;;;;;;5026520;28;19925;-65
2021/11/27 10:10:50;;;;;;;;;;;;;;;;;;5023220;28;19948;-65
2021/11/27 10:13:22;;;;;;;;;;;;;;;;;;5021170;28;20249;-64
2021/11/27 10:15:49;;;;;;;;;;;;;;;;;;5022915;28;19930;-65
2021/11/27 10:18:21;;;;;;;;;;;;;;;;;;5025764;28;20346;-65
2021/11/27 10:20:50;;;;;;;;;;;;;;;;;;5025836;28;19932;-65
2021/11/27 10:23:20;;;;;;;;;;;;;;;;;;5021271;28;19925;-64
2021/11/27 10:25:54;;;;;;;;;;;;;;;;;;5023424;28;20274;-63
2021/11/27 10:28:28;;;;;;;;;;;;;;;;;;5029465;28;20348;-63
2021/11/27 10:31:05;;;;;;;;;;;;;;;;;;5025199;28;19925;-63
2021/11/27 10:33:37;;;;;;;;;;;;;;;;;;5018798;28;19933;-63
2021/11/27 10:36:07;;;;;;;;;;;;;;;;;;5027457;28;20216;-63
2021/11/27 10:38:38;;;;;;;;;;;;;;;;;;5030242;28;19955;-63
2021/11/27 10:41:08;;;;;;;;;;;;;;;;;;5028742;28;20351;-63
2021/11/27 10:43:39;;;;;;;;;;;;;;;;;;5028550;28;19932;-63
2021/11/27 10:46:22;;;;;;;;;;;;;;;;;;5026129;28;19932;-63
2021/11/27 10:48:53;;;;;;;;;;;;;;;;;;5028625;28;19936;-63
2021/11/27 10:51:26;;;;;;;;;;;;;;;;;;5026776;28;19933;-63
2021/11/27 10:53:58;;;;;;;;;;;;;;;;;;5010252;28;20441;-63
2021/11/27 10:56:30;;;;;;;;;;;;;;;;;;5031324;28;19932;-63
2021/11/27 10:58:59;;;;;;;;;;;;;;;;;;5025647;28;19925;-63
2021/11/27 11:01:27;;;;;;;;;;;;;;;;;;5022961;28;19929;-63
2021/11/27 11:03:57;;;;;;;;;;;;;;;;;;5028812;28;19998;-63
2021/11/27 11:06:27;;;;;;;;;;;;;;;;;;5026331;28;19986;-63
2021/11/27 11:08:57;;;;;;;;;;;;;;;;;;5025903;28;20023;-63
2021/11/27 11:11:27;;;;;;;;;;;;;;;;;;5025943;28;19929;-64
2021/11/27 11:13:57;;;;;;;;;;;;;;;;;;5028099;28;19925;-65
2021/11/27 11:16:29;;;;;;;;;;;;;;;;;;5027254;28;19925;-64
2021/11/27 11:19:11;;;;;;;;;;;;;;;;;;5024531;28;19968;-64
2021/11/27 11:21:40;;;;;;;;;;;;;;;;;;5024360;28;19941;-64
2021/11/27 11:24:11;;;;;;;;;;;;;;;;;;5027376;28;19925;-64
2021/11/27 11:26:44;;;;;;;;;;;;;;;;;;5028275;28;19956;-63
2021/11/27 11:29:27;;;;;;;;;;;;;;;;;;5024938;28;19929;-63
2021/11/27 11:32:00;;;;;;;;;;;;;;;;;;5021465;28;20270;-63
2021/11/27 11:34:31;;;;;;;;;;;;;;;;;;5018923;28;19925;-63
2021/11/27 11:37:00;;;;;;;;;;;;;;;;;;5026686;28;19926;-64
2021/11/27 11:39:31;;;;;;;;;;;;;;;;;;5023888;28;19959;-64
2021/11/27 11:42:02;;;;;;;;;;;;;;;;;;5024675;28;19925;-64
2021/11/27 11:44:35;;;;;;;;;;;;;;;;;;5024310;28;19925;-64
2021/11/27 11:47:09;;;;;;;;;;;;;;;;;;5026176;28;19929;-63
2021/11/27 11:49:40;;;;;;;;;;;;;;;;;;5026248;28;19927;-63
2021/11/27 11:52:10;;;;;;;;;;;;;;;;;;5020695;28;20107;-65
2021/11/27 11:54:40;;;;;;;;;;;;;;;;;;5027955;28;19975;-64
2021/11/27 11:57:09;;;;;;;;;;;;;;;;;;5035899;28;20439;-64
2021/11/27 11:59:40;;;;;;;;;;;;;;;;;;5025331;28;19929;-65
2021/11/27 12:02:10;;;;;;;;;;;;;;;;;;5028701;28;19936;-64
2021/11/27 12:04:45;;;;;;;;;;;;;;;;;;5027054;28;19939;-64
2021/11/27 12:07:13;;;;;;;;;;;;;;;;;;5030465;28;20057;-64
2021/11/27 12:09:41;;;;;;;;;;;;;;;;;;5024478;28;20346;-64
2021/11/27 12:12:11;;;;;;;;;;;;;;;;;;5026829;28;20242;-65
2021/11/27 12:14:44;;;;;;;;;;;;;;;;;;5024924;28;20374;-64
2021/11/27 12:17:19;;;;;;;;;;;;;;;;;;5026476;28;19925;-64
2021/11/27 12:19:52;;;;;;;;;;;;;;;;;;5027020;28;19936;-64
2021/11/27 12:22:21;;;;;;;;;;;;;;;;;;5026274;28;19933;-64
2021/11/27 12:24:52;;;;;;;;;;;;;;;;;;5027138;28;19987;-64
2021/11/27 12:27:23;;;;;;;;;;;;;;;;;;5022199;28;19925;-64
2021/11/27 12:29:52;;;;;;;;;;;;;;;;;;5026753;28;19941;-64
2021/11/27 12:32:21;;;;;;;;;;;;;;;;;;5027103;28;20336;-64
2021/11/27 12:34:53;;;;;;;;;;;;;;;;;;5024267;28;19933;-64
2021/11/27 12:37:24;;;;;;;;;;;;;;;;;;5024407;28;19968;-64
2021/11/27 12:39:57;;;;;;;;;;;;;;;;;;5009688;28;19979;-64
2021/11/27 12:42:40;;;;;;;;;;;;;;;;;;5024831;28;19925;-64
2021/11/27 12:45:08;;;;;;;;;;;;;;;;;;5023936;28;19935;-68
2021/11/27 12:47:38;;;;;;;;;;;;;;;;;;5024460;28;19940;-67
2021/11/27 12:50:12;;;;;;;;;;;;;;;;;;5027472;28;19925;-67
2021/11/27 12:52:45;;;;;;;;;;;;;;;;;;5028439;28;19928;-66
2021/11/27 12:55:14;;;;;;;;;;;;;;;;;;5026953;28;20336;-66
2021/11/27 12:57:46;;;;;;;;;;;;;;;;;;5017847;28;19925;-66
2021/11/27 13:00:14;;;;;;;;;;;;;;;;;;5015981;28;19928;-68
2021/11/27 13:02:48;;;;;;;;;;;;;;;;;;5020575;28;20529;-67
2021/11/27 13:05:19;;;;;;;;;;;;;;;;;;4998156;28;20354;-67
2021/11/27 13:07:51;;;;;;;;;;;;;;;;;;5026534;28;19926;-67
2021/11/27 13:10:19;;;;;;;;;;;;;;;;;;5024788;28;20346;-65
2021/11/27 13:13:04;;;;;;;;;;;;;;;;;;5025075;28;20534;-66
2021/11/27 13:15:46;;;;;;;;;;;;;;;;;;5018355;28;19991;-65
2021/11/27 13:18:17;;;;;;;;;;;;;;;;;;5023195;28;19925;-65
2021/11/27 13:20:48;;;;;;;;;;;;;;;;;;5027246;28;19932;-64
2021/11/27 13:23:16;;;;;;;;;;;;;;;;;;5017847;28;20343;-64
2021/11/27 13:25:44;;;;;;;;;;;;;;;;;;5028004;28;19959;-66
2021/11/27 13:28:14;;;;;;;;;;;;;;;;;;5018759;28;19941;-67
2021/11/27 13:30:44;;;;;;;;;;;;;;;;;;5024405;28;19930;-66
2021/11/27 13:33:13;;;;;;;;;;;;;;;;;;5014705;28;19929;-66
2021/11/27 13:35:43;;;;;;;;;;;;;;;;;;5026049;28;19933;-66
2021/11/27 13:38:12;;;;;;;;;;;;;;;;;;5024319;28;19925;-66
2021/11/27 13:40:42;;;;;;;;;;;;;;;;;;5024670;28;19925;-66
2021/11/27 13:43:12;;;;;;;;;;;;;;;;;;5025571;28;19925;-66
2021/11/27 13:45:40;;;;;;;;;;;;;;;;;;5019050;28;19925;-63
2021/11/27 13:48:10;;;;;;;;;;;;;;;;;;5025031;28;20317;-63
2021/11/27 13:50:44;;;;;;;;;;;;;;;;;;5024695;28;19947;-63
2021/11/27 13:53:11;;;;;;;;;;;;;;;;;;5022188;28;19925;-63
2021/11/27 13:55:46;;;;;;;;;;;;;;;;;;5021159;28;19933;-64
2021/11/27 13:58:15;;;;;;;;;;;;;;;;;;5022351;28;20189;-64
2021/11/27 14:00:45;;;;;;;;;;;;;;;;;;5023654;28;19998;-65
2021/11/27 14:03:14;;;;;;;;;;;;;;;;;;5022649;28;20572;-66
2021/11/27 14:05:52;;;;;;;;;;;;;;;;;;5024363;28;19944;-64
2021/11/27 14:08:22;;;;;;;;;;;;;;;;;;5017630;28;20587;-64
2021/11/27 14:10:53;;;;;;;;;;;;;;;;;;5019327;28;19929;-64
2021/11/27 14:13:22;;;;;;;;;;;;;;;;;;5020448;28;19982;-64
2021/11/27 14:15:52;;;;;;;;;;;;;;;;;;5023195;28;20270;-63
2021/11/27 14:18:22;;;;;;;;;;;;;;;;;;5025192;28;19935;-63
2021/11/27 14:20:50;;;;;;;;;;;;;;;;;;5020122;28;19953;-65
2021/11/27 14:23:22;;;;;;;;;;;;;;;;;;5019889;28;19925;-66
2021/11/27 14:25:51;;;;;;;;;;;;;;;;;;5024108;28;20467;-62
2021/11/27 14:28:21;;;;;;;;;;;;;;;;;;5025531;28;19924;-63
2021/11/27 14:30:52;;;;;;;;;;;;;;;;;;5017737;28;19925;-62
2021/11/27 14:33:19;;;;;;;;;;;;;;;;;;5019462;28;19929;-62
2021/11/27 14:35:48;;;;;;;;;;;;;;;;;;5025744;28;19925;-65
2021/11/27 14:38:15;;;;;;;;;;;;;;;;;;5012483;28;19945;-65
2021/11/27 14:40:45;;;;;;;;;;;;;;;;;;5027184;28;19936;-65
2021/11/27 14:43:17;;;;;;;;;;;;;;;;;;5023012;28;20326;-66
2021/11/27 14:45:49;;;;;;;;;;;;;;;;;;5022670;28;19925;-62
2021/11/27 14:48:18;;;;;;;;;;;;;;;;;;5029733;28;19944;-63
2021/11/27 14:50:48;;;;;;;;;;;;;;;;;;5024159;28;19956;-64
2021/11/27 14:53:29;;;;;;;;;;;;;;;;;;5022561;28;19925;-63
2021/11/27 14:55:56;;;;;;;;;;;;;;;;;;5011268;28;19933;-65
2021/11/27 14:58:29;;;;;;;;;;;;;;;;;;5023362;28;19925;-65
2021/11/27 15:01:00;;;;;;;;;;;;;;;;;;5024880;28;20520;-65
2021/11/27 15:03:31;;;;;;;;;;;;;;;;;;5024894;28;19937;-65
2021/11/27 15:06:07;;;;;;;;;;;;;;;;;;5026290;28;19933;-67
2021/11/27 15:08:35;;;;;;;;;;;;;;;;;;5026437;28;19940;-66
2021/11/27 15:11:05;;;;;;;;;;;;;;;;;;5024822;28;19929;-64
2021/11/27 15:13:45;;;;;;;;;;;;;;;;;;5026934;28;20559;-64
2021/11/27 15:16:16;;;;;;;;;;;;;;;;;;5029548;28;20406;-63
2021/11/27 15:18:48;;;;;;;;;;;;;;;;;;5025580;28;20012;-63
2021/11/27 15:21:28;;;;;;;;;;;;;;;;;;5024798;28;19982;-63
2021/11/27 15:24:03;;;;;;;;;;;;;;;;;;5030941;28;19963;-64
2021/11/27 15:26:35;;;;;;;;;;;;;;;;;;5036562;28;19932;-63
2021/11/27 15:29:05;;;;;;;;;;;;;;;;;;5026872;28;19932;-64
2021/11/27 15:31:33;;;;;;;;;;;;;;;;;;5034123;28;20027;-64
2021/11/27 15:34:04;;;;;;;;;;;;;;;;;;5029845;28;19933;-64
2021/11/27 15:36:34;;;;;;;;;;;;;;;;;;5037356;28;21587;-65
2021/11/27 15:39:05;;;;;;;;;;;;;;;;;;5029927;28;19925;-65
2021/11/27 15:41:34;;;;;;;;;;;;;;;;;;5032764;28;20649;-65
2021/11/27 15:44:06;;;;;;;;;;;;;;;;;;5026364;28;20286;-65
2021/11/27 15:46:35;;;;;;;;;;;;;;;;;;5034742;28;19929;-65
2021/11/27 15:49:18;;;;;;;;;;;;;;;;;;5024612;28;19925;-65
2021/11/27 15:52:00;;;;;;;;;;;;;;;;;;5020864;28;19960;-66
2021/11/27 15:54:29;;;;;;;;;;;;;;;;;;5025326;28;19983;-66
2021/11/27 15:56:59;;;;;;;;;;;;;;;;;;5028792;28;19925;-66
2021/11/27 15:59:28;;;;;;;;;;;;;;;;;;5022848;28;20297;-66
2021/11/27 16:01:56;;;;;;;;;;;;;;;;;;5027322;28;19929;-66
2021/11/27 16:04:28;;;;;;;;;;;;;;;;;;5025365;28;20020;-66
2021/11/27 16:06:58;;;;;;;;;;;;;;;;;;5027864;28;19937;-66
2021/11/27 16:09:42;;;;;;;;;;;;;;;;;;5022988;28;19925;-66
2021/11/27 16:12:12;;;;;;;;;;;;;;;;;;5024916;28;19962;-66
2021/11/27 16:14:44;;;;;;;;;;;;;;;;;;5026521;28;19933;-65
2021/11/27 16:17:14;;;;;;;;;;;;;;;;;;5024086;28;20524;-66
2021/11/27 16:19:44;;;;;;;;;;;;;;;;;;5026347;28;19940;-66
2021/11/27 16:22:16;;;;;;;;;;;;;;;;;;5023662;28;19929;-65
2021/11/27 16:24:47;;;;;;;;;;;;;;;;;;5027145;28;19940;-65
2021/11/27 16:27:18;;;;;;;;;;;;;;;;;;5023108;28;19937;-66
2021/11/27 16:29:48;;;;;;;;;;;;;;;;;;5025843;28;19936;-66
2021/11/27 16:32:41;;;;;;;;;;;;;;;;;;5023841;28;19933;-66
2021/11/27 16:35:10;;;;;;;;;;;;;;;;;;5025282;28;19933;-66
2021/11/27 16:37:39;;;;;;;;;;;;;;;;;;5022672;28;19931;-66
2021/11/27 16:40:11;;;;;;;;;;;;;;;;;;5024823;28;20646;-66
2021/11/27 16:42:42;;;;;;;;;;;;;;;;;;5026273;28;19982;-66
2021/11/27 16:45:12;;;;;;;;;;;;;;;;;;5024855;28;20054;-66
2021/11/27 16:47:43;;;;;;;;;;;;;;;;;;5024505;28;19929;-65
2021/11/27 16:50:12;;;;;;;;;;;;;;;;;;5026187;28;19936;-66
2021/11/27 16:52:43;;;;;;;;;;;;;;;;;;5024860;28;19929;-65
2021/11/27 16:55:15;;;;;;;;;;;;;;;;;;5023747;28;19940;-65
2021/11/27 16:57:57;;;;;;;;;;;;;;;;;;5021652;28;19968;-66
2021/11/27 17:00:28;;;;;;;;;;;;;;;;;;5026361;28;20257;-66
2021/11/27 17:03:04;;;;;;;;;;;;;;;;;;5025037;28;19929;-66
2021/11/27 17:05:41;;;;;;;;;;;;;;;;;;5021322;28;20295;-66
2021/11/27 17:08:09;;;;;;;;;;;;;;;;;;5024872;28;19982;-66
2021/11/27 17:10:41;;;;;;;;;;;;;;;;;;4976423;28;20703;-68
2021/11/27 17:13:14;;;;;;;;;;;;;;;;;;5023141;28;19987;-67